createdAt,value
2022-09-23T00:02:03.126Z,67.69
2022-09-23T00:04:32.451Z,67.22
2022-09-23T00:07:00.239Z,67.14
2022-09-23T00:09:28.056Z,66.95
2022-09-23T00:11:55.946Z,66.67
2022-09-23T00:14:24.528Z,66.71
2022-09-23T00:16:52.409Z,66.81
2022-09-23T00:19:20.275Z,66.51
2022-09-23T00:21:49.568Z,66.59
2022-09-23T00:24:17.420Z,66.21
2022-09-23T00:26:45.357Z,66.30
2022-09-23T00:29:13.167Z,66.38
2022-09-23T00:31:41.078Z,66.31
2022-09-23T00:34:12.007Z,66.37
2022-09-23T00:36:40.442Z,66.57
2022-09-23T00:39:10.415Z,66.88
2022-09-23T00:41:38.400Z,66.64
2022-09-23T00:44:39.530Z,66.29
2022-09-23T00:47:18.190Z,66.44
2022-09-23T00:49:48.159Z,66.73
2022-09-23T00:52:19.610Z,66.79
2022-09-23T00:54:49.299Z,66.74
2022-09-23T00:57:20.071Z,66.60
2022-09-23T00:59:51.024Z,66.77
2022-09-23T01:02:21.139Z,66.65
2022-09-23T01:04:50.963Z,66.85
2022-09-23T01:07:19.139Z,66.35
2022-09-23T01:09:50.032Z,66.47
2022-09-23T01:12:32.593Z,66.41
2022-09-23T01:15:10.393Z,66.38
2022-09-23T01:17:43.674Z,66.06
2022-09-23T01:20:46.460Z,65.95
2022-09-23T01:23:30.360Z,66.20
2022-09-23T01:26:16.310Z,66.58
2022-09-23T01:29:13.303Z,66.52
2022-09-23T01:31:47.553Z,66.49
2022-09-23T01:34:24.217Z,66.30
2022-09-23T01:36:58.975Z,66.46
2022-09-23T01:39:36.324Z,66.40
2022-09-23T01:42:07.556Z,66.32
2022-09-23T01:44:40.555Z,66.16
2022-09-23T01:47:14.349Z,66.49
2022-09-23T01:49:50.388Z,66.41
2022-09-23T01:52:26.294Z,65.97
2022-09-23T01:55:02.188Z,66.15
2022-09-23T01:57:34.551Z,66.17
2022-09-23T02:00:07.637Z,66.48
2022-09-23T02:02:49.481Z,66.26
2022-09-23T02:05:23.387Z,66.01
2022-09-23T02:07:55.227Z,65.95
2022-09-23T02:10:26.409Z,65.73
2022-09-23T02:12:57.704Z,65.63
2022-09-23T02:15:30.591Z,65.93
2022-09-23T02:18:04.891Z,65.21
2022-09-23T02:20:39.647Z,65.27
2022-09-23T02:23:12.213Z,65.29
2022-09-23T02:25:47.091Z,65.21
2022-09-23T02:28:19.414Z,65.32
2022-09-23T02:30:56.236Z,64.97
2022-09-23T02:33:34.663Z,65.24
2022-09-23T02:36:11.447Z,65.20
2022-09-23T02:38:46.138Z,64.80
2022-09-23T02:41:19.131Z,65.19
2022-09-23T02:43:50.929Z,65.93
2022-09-23T02:46:19.792Z,65.83
2022-09-23T02:48:54.264Z,66.19
2022-09-23T02:51:23.745Z,65.85
2022-09-23T02:53:52.088Z,65.74
2022-09-23T02:56:21.969Z,66.29
2022-09-23T02:58:51.916Z,66.05
2022-09-23T03:01:32.031Z,66.13
2022-09-23T03:04:12.201Z,66.25
2022-09-23T03:06:52.735Z,66.26
2022-09-23T03:09:26.280Z,66.91
2022-09-23T03:12:01.235Z,66.63
2022-09-23T03:14:40.419Z,66.14
2022-09-23T03:17:16.137Z,66.89
2022-09-23T03:19:52.877Z,67.31
2022-09-23T03:22:25.987Z,67.13
2022-09-23T03:24:56.999Z,66.94
2022-09-23T03:27:28.783Z,66.35
2022-09-23T03:29:58.227Z,66.35
2022-09-23T03:32:29.408Z,66.33
2022-09-23T03:35:02.580Z,66.03
2022-09-23T03:37:35.060Z,65.91
2022-09-23T03:40:09.849Z,65.77
2022-09-23T03:42:40.198Z,65.40
2022-09-23T03:45:13.029Z,65.30
2022-09-23T03:47:42.440Z,65.31
2022-09-23T03:50:13.371Z,65.19
2022-09-23T03:52:41.431Z,65.04
2022-09-23T03:55:10.285Z,64.70
2022-09-23T03:57:38.886Z,64.98
2022-09-23T04:00:08.326Z,64.63
2022-09-23T04:02:36.720Z,64.74
2022-09-23T04:05:05.469Z,64.86
2022-09-23T04:07:34.690Z,65.01
2022-09-23T04:10:02.534Z,65.12
2022-09-23T04:12:30.368Z,65.25
2022-09-23T04:14:58.473Z,65.25
2022-09-23T04:17:29.585Z,65.42
2022-09-23T04:19:57.532Z,65.75
2022-09-23T04:22:25.324Z,65.71
2022-09-23T04:24:54.884Z,65.86
2022-09-23T04:27:22.788Z,65.81
2022-09-23T04:29:50.569Z,65.50
2022-09-23T04:32:18.524Z,65.42
2022-09-23T04:34:46.436Z,65.48
2022-09-23T04:37:14.367Z,65.60
2022-09-23T04:39:43.332Z,65.56
2022-09-23T04:42:12.503Z,65.67
2022-09-23T04:44:40.755Z,65.44
2022-09-23T04:47:08.781Z,65.54
2022-09-23T04:49:36.664Z,66.10
2022-09-23T04:52:05.409Z,65.69
2022-09-23T04:54:33.629Z,66.32
2022-09-23T04:57:01.724Z,65.82
2022-09-23T04:59:31.026Z,65.40
2022-09-23T05:01:58.904Z,65.70
2022-09-23T05:04:26.892Z,66.01
2022-09-23T05:06:55.944Z,65.75
2022-09-23T05:09:25.386Z,65.95
2022-09-23T05:11:53.204Z,66.16
2022-09-23T05:14:21.398Z,66.23
2022-09-23T05:16:50.713Z,65.90
2022-09-23T05:19:18.540Z,66.18
2022-09-23T05:21:46.376Z,65.85
2022-09-23T05:24:15.065Z,65.79
2022-09-23T05:26:43.220Z,65.70
2022-09-23T05:29:11.348Z,65.57
2022-09-23T05:31:39.318Z,65.49
2022-09-23T05:34:08.771Z,65.26
2022-09-23T05:36:39.194Z,64.92
2022-09-23T05:39:08.856Z,65.09
2022-09-23T05:41:37.788Z,65.06
2022-09-23T05:44:05.769Z,64.88
2022-09-23T05:46:34.225Z,64.90
2022-09-23T05:49:03.614Z,64.33
2022-09-23T05:51:34.945Z,64.54
2022-09-23T05:54:04.293Z,64.90
2022-09-23T05:56:34.210Z,64.24
2022-09-23T05:59:03.502Z,64.11
2022-09-23T06:01:34.104Z,64.25
2022-09-23T06:04:04.603Z,64.09
2022-09-23T06:06:35.432Z,63.49
2022-09-23T06:09:03.586Z,63.75
2022-09-23T06:11:32.880Z,64.07
2022-09-23T06:14:02.140Z,63.98
2022-09-23T06:16:32.186Z,64.04
2022-09-23T06:19:05.966Z,63.83
2022-09-23T06:21:38.046Z,63.54
2022-09-23T06:24:07.076Z,63.77
2022-09-23T06:26:35.663Z,63.73
2022-09-23T06:29:04.280Z,63.48
2022-09-23T06:31:33.198Z,63.77
2022-09-23T06:34:12.200Z,63.44
2022-09-23T06:36:45.382Z,62.95
2022-09-23T06:39:14.957Z,63.07
2022-09-23T06:41:42.898Z,63.48
2022-09-23T06:44:11.013Z,63.78
2022-09-23T06:46:38.989Z,63.61
2022-09-23T06:49:07.203Z,63.36
2022-09-23T06:51:35.139Z,63.22
2022-09-23T06:54:04.758Z,62.78
2022-09-23T06:56:38.505Z,63.32
2022-09-23T06:59:07.642Z,63.10
2022-09-23T07:01:35.888Z,63.47
2022-09-23T07:04:03.910Z,63.65
2022-09-23T07:06:31.790Z,63.28
2022-09-23T07:09:01.109Z,62.99
2022-09-23T07:11:30.825Z,62.30
2022-09-23T07:13:58.899Z,63.10
2022-09-23T07:16:27.228Z,62.21
2022-09-23T07:18:55.996Z,62.35
2022-09-23T07:21:23.898Z,62.46
2022-09-23T07:23:52.135Z,61.84
2022-09-23T07:26:21.209Z,62.25
2022-09-23T07:28:54.856Z,60.98
2022-09-23T07:31:36.134Z,60.92
2022-09-23T07:34:08.180Z,61.08
2022-09-23T07:36:37.424Z,61.13
2022-09-23T07:39:06.109Z,61.02
2022-09-23T07:41:35.009Z,59.75
2022-09-23T07:44:06.206Z,58.94
2022-09-23T07:46:36.566Z,59.03
2022-09-23T07:49:05.291Z,58.24
2022-09-23T07:51:36.590Z,54.24
2022-09-23T07:54:08.034Z,50.22
2022-09-23T07:56:36.924Z,47.21
2022-09-23T07:59:08.888Z,45.02
2022-09-23T08:01:38.817Z,44.50
2022-09-23T08:04:09.315Z,44.53
2022-09-23T08:06:40.910Z,43.28
2022-09-23T08:09:09.456Z,44.79
2022-09-23T08:11:41.734Z,46.11
2022-09-23T08:14:11.724Z,46.08
2022-09-23T08:16:39.859Z,45.75
2022-09-23T08:19:08.073Z,44.24
2022-09-23T08:21:37.696Z,44.61
2022-09-23T08:24:05.734Z,43.11
2022-09-23T08:26:34.309Z,42.35
2022-09-23T08:29:02.461Z,41.66
2022-09-23T08:31:31.681Z,40.08
2022-09-23T08:34:00.420Z,41.21
2022-09-23T08:36:28.503Z,40.60
2022-09-23T08:38:57.269Z,39.75
2022-09-23T08:41:36.167Z,38.41
2022-09-23T08:44:09.165Z,38.36
2022-09-23T08:46:43.366Z,36.23
2022-09-23T08:49:17.300Z,36.16
2022-09-23T08:51:48.063Z,35.33
2022-09-23T08:54:18.887Z,35.28
2022-09-23T08:56:52.353Z,34.91
2022-09-23T08:59:28.808Z,34.79
2022-09-23T09:02:02.116Z,34.48
2022-09-23T09:04:42.987Z,34.24
2022-09-23T09:07:35.614Z,33.63
2022-09-23T09:10:11.597Z,34.67
2022-09-23T09:12:43.522Z,34.68
2022-09-23T09:15:15.319Z,35.43
2022-09-23T09:17:52.377Z,36.75
2022-09-23T09:20:24.534Z,38.58
2022-09-23T09:22:57.752Z,39.74
2022-09-23T09:25:34.533Z,40.54
2022-09-23T09:28:04.539Z,41.30
2022-09-23T09:30:36.194Z,41.95
2022-09-23T09:33:10.130Z,42.57
2022-09-23T09:35:43.206Z,41.58
2022-09-23T09:38:11.306Z,42.20
2022-09-23T09:40:46.194Z,43.02
2022-09-23T09:43:23.669Z,42.97
2022-09-23T09:46:04.982Z,42.82
2022-09-23T09:48:39.957Z,43.76
2022-09-23T09:51:20.434Z,43.78
2022-09-23T09:53:50.094Z,42.82
2022-09-23T09:56:20.707Z,43.89
2022-09-23T09:58:51.406Z,42.86
2022-09-23T10:01:24.422Z,42.47
2022-09-23T10:03:57.060Z,42.79
2022-09-23T10:06:28.509Z,42.87
2022-09-23T10:09:12.757Z,41.56
2022-09-23T10:11:41.756Z,43.21
2022-09-23T10:14:14.987Z,41.98
2022-09-23T10:16:42.880Z,41.77
2022-09-23T10:19:25.767Z,41.36
2022-09-23T10:21:59.900Z,41.70
2022-09-23T10:24:31.092Z,42.54
2022-09-23T10:27:02.978Z,41.98
2022-09-23T10:29:33.014Z,42.51
2022-09-23T10:32:30.575Z,42.51
2022-09-23T10:35:13.496Z,43.33
2022-09-23T10:37:42.753Z,43.25
2022-09-23T10:40:35.573Z,42.91
2022-09-23T10:43:41.453Z,43.04
2022-09-23T10:46:35.476Z,43.27
2022-09-23T10:49:24.619Z,42.52
2022-09-23T10:52:05.413Z,42.43
2022-09-23T10:54:43.552Z,41.65
2022-09-23T10:57:40.713Z,42.18
2022-09-23T11:00:23.193Z,41.47
2022-09-23T11:03:20.603Z,42.03
2022-09-23T11:05:57.906Z,41.73
2022-09-23T11:08:44.176Z,41.66
2022-09-23T11:11:25.329Z,40.92
2022-09-23T11:14:17.222Z,40.25
2022-09-23T11:17:06.123Z,40.18
2022-09-23T11:19:58.299Z,40.50
2022-09-23T11:22:42.300Z,39.63
2022-09-23T11:25:32.108Z,40.72
2022-09-23T11:28:34.190Z,39.46
2022-09-23T11:31:14.741Z,39.95
2022-09-23T11:33:58.522Z,40.50
2022-09-23T11:36:32.781Z,40.50
2022-09-23T11:39:03.942Z,39.76
2022-09-23T11:41:38.451Z,40.20
2022-09-23T11:44:14.769Z,40.55
2022-09-23T11:46:47.765Z,40.75
2022-09-23T11:49:20.321Z,40.85
2022-09-23T11:52:01.910Z,39.07
2022-09-23T11:54:35.959Z,40.05
2022-09-23T11:57:11.062Z,40.47
2022-09-23T11:59:46.255Z,40.60
2022-09-23T12:02:25.619Z,40.72
2022-09-23T12:05:03.075Z,41.20
2022-09-23T12:07:43.712Z,41.83
2022-09-23T12:10:12.917Z,42.21
2022-09-23T12:12:51.949Z,42.49
2022-09-23T12:15:34.659Z,41.16
2022-09-23T12:18:17.494Z,40.76
2022-09-23T12:24:50.482Z,39.61
2022-09-23T12:27:31.956Z,40.52
2022-09-23T12:30:04.200Z,39.33
2022-09-23T12:32:33.337Z,39.27
2022-09-23T12:35:02.754Z,38.50
2022-09-23T12:37:36.034Z,38.24
2022-09-23T12:40:09.860Z,38.18
2022-09-23T12:42:46.036Z,38.34
2022-09-23T12:45:37.351Z,37.86
2022-09-23T12:48:26.162Z,38.51
2022-09-23T12:50:58.406Z,38.80
2022-09-23T12:53:55.241Z,37.25
2022-09-23T12:56:27.564Z,38.41
2022-09-23T12:59:14.727Z,38.53
2022-09-23T13:01:44.618Z,37.62
2022-09-23T13:04:49.292Z,37.67
2022-09-23T13:07:20.266Z,38.92
2022-09-23T13:09:51.477Z,37.72
2022-09-23T13:12:24.759Z,37.33
2022-09-23T13:14:56.255Z,36.78
2022-09-23T13:17:32.041Z,37.26
2022-09-23T13:20:03.535Z,37.10
2022-09-23T13:23:06.017Z,35.86
2022-09-23T13:25:40.469Z,36.65
2022-09-23T13:28:22.488Z,36.62
2022-09-23T13:30:52.380Z,36.68
2022-09-23T13:33:29.714Z,36.19
2022-09-23T13:36:02.811Z,36.54
2022-09-23T13:38:32.379Z,36.37
2022-09-23T13:41:03.386Z,35.99
2022-09-23T13:43:40.293Z,36.08
2022-09-23T13:46:13.439Z,36.48
2022-09-23T13:48:45.905Z,36.59
2022-09-23T13:51:20.630Z,36.55
2022-09-23T13:53:53.387Z,37.15
2022-09-23T13:56:21.517Z,37.18
2022-09-23T13:58:49.604Z,37.00
2022-09-23T14:01:24.187Z,37.15
2022-09-23T14:03:53.444Z,37.12
2022-09-23T14:06:21.462Z,37.24
2022-09-23T14:08:51.317Z,36.93
2022-09-23T14:11:21.304Z,37.67
2022-09-23T14:13:55.210Z,37.43
2022-09-23T14:16:26.715Z,37.01
2022-09-23T14:18:58.764Z,37.24
2022-09-23T14:21:35.127Z,37.30
2022-09-23T14:24:17.237Z,36.58
2022-09-23T14:26:48.284Z,36.69
2022-09-23T14:29:18.693Z,36.96
2022-09-23T14:31:57.065Z,37.27
2022-09-23T14:34:47.258Z,37.57
2022-09-23T14:37:42.931Z,37.09
2022-09-23T14:40:15.947Z,36.54
2022-09-23T14:42:47.211Z,37.11
2022-09-23T14:45:19.357Z,36.57
2022-09-23T14:47:51.062Z,36.76
2022-09-23T14:50:40.073Z,36.67
2022-09-23T14:53:33.579Z,37.22
2022-09-23T14:56:20.984Z,37.47
2022-09-23T14:58:53.249Z,37.67
2022-09-23T15:01:45.264Z,37.28
2022-09-23T15:04:18.801Z,37.89
2022-09-23T15:06:52.290Z,38.62
2022-09-23T15:09:26.071Z,38.78
2022-09-23T15:11:58.454Z,38.32
2022-09-23T15:14:38.844Z,38.73
2022-09-23T15:17:17.814Z,38.20
2022-09-23T15:19:46.562Z,39.39
2022-09-23T15:22:16.655Z,38.93
2022-09-23T15:24:46.868Z,38.74
2022-09-23T15:27:38.772Z,38.94
2022-09-23T15:30:16.267Z,39.42
2022-09-23T15:32:44.608Z,39.38
2022-09-23T15:35:16.849Z,40.01
2022-09-23T15:37:47.715Z,39.70
2022-09-23T15:40:21.066Z,40.16
2022-09-23T15:42:51.626Z,40.39
2022-09-23T15:45:22.463Z,40.37
2022-09-23T15:47:52.321Z,40.34
2022-09-23T15:50:20.971Z,40.65
2022-09-23T15:52:50.737Z,40.83
2022-09-23T15:55:23.628Z,40.98
2022-09-23T15:57:51.638Z,41.13
2022-09-23T16:00:19.821Z,40.76
2022-09-23T16:02:49.886Z,41.29
2022-09-23T16:05:22.836Z,41.31
2022-09-23T16:07:53.389Z,41.04
2022-09-23T16:10:23.482Z,41.34
2022-09-23T16:12:54.654Z,41.12
2022-09-23T16:15:24.875Z,41.64
2022-09-23T16:17:52.899Z,41.47
2022-09-23T16:20:20.882Z,41.54
2022-09-23T16:22:57.194Z,42.15
2022-09-23T16:25:27.967Z,41.85
2022-09-23T16:27:56.365Z,42.17
2022-09-23T16:30:24.721Z,42.29
2022-09-23T16:32:52.754Z,42.70
2022-09-23T16:35:21.492Z,43.01
2022-09-23T16:37:50.296Z,42.88
2022-09-23T16:40:21.607Z,42.76
2022-09-23T16:42:52.117Z,42.87
2022-09-23T16:45:23.178Z,43.61
2022-09-23T16:47:54.437Z,43.70
2022-09-23T16:50:24.528Z,43.91
2022-09-23T16:52:55.574Z,43.84
2022-09-23T16:55:27.447Z,44.38
2022-09-23T16:57:56.178Z,44.34
2022-09-23T17:00:42.617Z,44.39
2022-09-23T17:03:31.015Z,44.73
2022-09-23T17:06:00.686Z,44.92
2022-09-23T17:08:31.202Z,45.35
2022-09-23T17:11:01.717Z,45.26
2022-09-23T17:13:31.283Z,45.57
2022-09-23T17:15:59.766Z,45.67
2022-09-23T17:18:28.163Z,45.79
2022-09-23T17:21:00.627Z,45.58
2022-09-23T17:23:29.034Z,45.49
2022-09-23T17:25:56.860Z,46.02
2022-09-23T17:28:26.680Z,46.58
2022-09-23T17:31:00.846Z,46.68
2022-09-23T17:33:30.918Z,46.98
2022-09-23T17:36:00.187Z,47.27
2022-09-23T17:38:29.614Z,47.87
2022-09-23T17:41:01.372Z,47.94
2022-09-23T17:43:31.627Z,48.69
2022-09-23T17:46:05.314Z,48.59
2022-09-23T17:48:35.242Z,49.07
2022-09-23T17:51:05.598Z,49.29
2022-09-23T17:53:36.432Z,49.74
2022-09-23T17:56:06.894Z,50.35
2022-09-23T17:58:38.112Z,50.81
2022-09-23T18:01:10.003Z,51.00
2022-09-23T18:03:38.687Z,50.64
2022-09-23T18:06:16.216Z,51.77
2022-09-23T18:08:45.862Z,52.00
2022-09-23T18:11:15.858Z,52.41
2022-09-23T18:13:49.061Z,52.18
2022-09-23T18:16:17.164Z,52.35
2022-09-23T18:18:45.111Z,52.73
2022-09-23T18:21:13.049Z,53.07
2022-09-23T18:23:41.128Z,52.40
2022-09-23T18:26:14.893Z,53.24
2022-09-23T18:28:42.999Z,53.00
2022-09-23T18:31:13.456Z,53.37
2022-09-23T18:33:41.421Z,53.83
2022-09-23T18:36:10.135Z,52.13
2022-09-23T18:38:38.077Z,52.62
2022-09-23T18:41:08.130Z,53.02
2022-09-23T18:43:40.726Z,53.27
2022-09-23T18:46:14.714Z,53.66
2022-09-23T18:49:01.202Z,53.90
2022-09-23T18:51:30.728Z,53.95
2022-09-23T18:53:59.940Z,53.25
2022-09-23T18:56:33.568Z,53.15
2022-09-23T18:59:01.907Z,53.63
2022-09-23T19:01:31.283Z,53.72
2022-09-23T19:04:02.130Z,53.76
2022-09-23T19:06:33.284Z,53.75
2022-09-23T19:09:01.248Z,53.17
2022-09-23T19:11:29.213Z,53.46
2022-09-23T19:14:00.412Z,53.56
2022-09-23T19:16:29.533Z,53.65
2022-09-23T19:19:00.391Z,54.16
2022-09-23T19:21:29.401Z,54.24
2022-09-23T19:24:00.404Z,54.40
2022-09-23T19:26:32.597Z,54.43
2022-09-23T19:29:02.221Z,54.77
2022-09-23T19:31:33.464Z,54.82
2022-09-23T19:34:06.114Z,55.17
2022-09-23T19:36:39.000Z,55.47
2022-09-23T19:39:08.912Z,55.53
2022-09-23T19:41:36.860Z,55.50
2022-09-23T19:44:07.692Z,55.55
2022-09-23T19:46:37.735Z,55.62
2022-09-23T19:49:08.738Z,55.63
2022-09-23T19:51:36.719Z,55.71
2022-09-23T19:54:07.273Z,55.86
2022-09-23T19:56:36.031Z,55.86
2022-09-23T19:59:06.851Z,56.15
2022-09-23T20:01:35.560Z,56.30
2022-09-23T20:04:06.832Z,56.68
2022-09-23T20:06:38.081Z,56.92
2022-09-23T20:09:06.987Z,57.37
2022-09-23T20:11:35.165Z,57.23
2022-09-23T20:14:05.006Z,57.69
2022-09-23T20:16:35.148Z,57.89
2022-09-23T20:19:04.574Z,58.18
2022-09-23T20:21:35.426Z,58.46
2022-09-23T20:24:06.641Z,58.75
2022-09-23T20:26:51.948Z,58.96
2022-09-23T20:29:19.905Z,58.80
2022-09-23T20:31:47.960Z,58.33
2022-09-23T20:34:15.812Z,58.89
2022-09-23T20:36:45.221Z,58.94
2022-09-23T20:39:13.112Z,59.12
2022-09-23T20:41:40.962Z,59.68
2022-09-23T20:44:12.693Z,59.33
2022-09-23T20:46:47.471Z,59.49
2022-09-23T20:49:16.338Z,60.05
2022-09-23T20:51:45.733Z,60.59
2022-09-23T20:54:13.520Z,60.70
2022-09-23T20:56:41.748Z,60.77
2022-09-23T20:59:10.584Z,60.97
2022-09-23T21:01:38.632Z,61.20
2022-09-23T21:04:08.144Z,61.17
2022-09-23T21:06:36.625Z,61.79
2022-09-23T21:09:06.717Z,62.32
2022-09-23T21:11:34.627Z,62.45
2022-09-23T21:14:02.977Z,62.42
2022-09-23T21:16:31.428Z,62.07
2022-09-23T21:18:59.932Z,61.90
2022-09-23T21:21:27.999Z,62.38
2022-09-23T21:24:07.020Z,61.96
2022-09-23T21:26:47.485Z,61.85
2022-09-23T21:29:15.360Z,62.33
2022-09-23T21:31:43.215Z,62.36
2022-09-23T21:34:12.560Z,62.59
2022-09-23T21:36:43.164Z,62.47
2022-09-23T21:39:12.761Z,62.34
2022-09-23T21:41:40.921Z,62.01
2022-09-23T21:44:10.145Z,62.38
2022-09-23T21:46:38.261Z,62.45
2022-09-23T21:49:06.425Z,63.14
2022-09-23T21:51:40.959Z,63.94
2022-09-23T21:54:13.699Z,64.55
2022-09-23T21:56:41.979Z,64.64
2022-09-23T21:59:11.489Z,64.59
2022-09-23T22:01:43.705Z,65.01
2022-09-23T22:04:16.186Z,64.19
2022-09-23T22:06:44.802Z,64.38
2022-09-23T22:09:15.118Z,64.96
2022-09-23T22:12:01.264Z,64.96
2022-09-23T22:14:30.885Z,65.45
2022-09-23T22:17:00.749Z,65.57
2022-09-23T22:19:40.265Z,65.75
2022-09-23T22:22:13.345Z,65.74
2022-09-23T22:24:41.708Z,65.72
2022-09-23T22:27:10.448Z,65.87
2022-09-23T22:29:57.385Z,66.23
2022-09-23T22:32:43.658Z,65.32
2022-09-23T22:35:13.692Z,64.97
2022-09-23T22:37:41.648Z,65.74
2022-09-23T22:40:14.210Z,65.35
2022-09-23T22:42:43.355Z,65.12
2022-09-23T22:45:13.967Z,65.60
2022-09-23T22:47:43.532Z,66.16
2022-09-23T22:50:14.015Z,66.21
2022-09-23T22:52:42.085Z,65.91
2022-09-23T22:55:10.637Z,65.46
2022-09-23T22:57:39.092Z,65.07
2022-09-23T23:00:08.357Z,65.57
2022-09-23T23:02:37.865Z,66.01
2022-09-23T23:05:06.723Z,66.11
2022-09-23T23:07:36.210Z,66.39
2022-09-23T23:10:10.354Z,66.77
2022-09-23T23:12:40.309Z,66.43
2022-09-23T23:15:11.814Z,66.54
2022-09-23T23:17:43.621Z,66.53
2022-09-23T23:20:11.785Z,66.63
2022-09-23T23:22:39.689Z,66.89
2022-09-23T23:25:08.368Z,66.80
2022-09-23T23:27:36.644Z,67.09
2022-09-23T23:30:05.080Z,67.28
2022-09-23T23:32:35.751Z,67.79
2022-09-23T23:35:05.944Z,68.29
2022-09-23T23:37:33.844Z,68.91
2022-09-23T23:40:01.812Z,68.84
2022-09-23T23:42:31.444Z,68.92
2022-09-23T23:44:59.574Z,69.28
2022-09-23T23:47:27.667Z,68.99
2022-09-23T23:49:55.645Z,69.40
2022-09-23T23:52:24.932Z,69.15
2022-09-23T23:54:52.790Z,68.96
2022-09-23T23:57:20.775Z,69.37
2022-09-23T23:59:48.642Z,69.40
